Time;durP1;ratioP1;P1;durP2;ratioP2;P2;SDS_P1;SDS_P2;PMS_P1;PMS_P2;Temp;Humidity;BMP_temperature;BMP_pressure;BME280_temperature;BME280_humidity;BME280_pressure;Samples;Min_cycle;Max_cycle;Signal;HPM_P1;HPM_P2
2022/05/25 00:00:13;;;;;;;;;;;15.60;99.90;;;;;;5105114;28;20111;-66
2022/05/25 00:02:40;;;;;;;;;;;15.70;99.90;;;;;;5102245;28;19920;-67
2022/05/25 00:05:08;;;;;;;;;;;15.60;99.90;;;;;;5104889;28;19920;-66
2022/05/25 00:07:35;;;;;;;;;;;15.60;99.90;;;;;;5104832;28;20116;-66
2022/05/25 00:10:01;;;;;;;;;;;15.70;99.90;;;;;;5102491;28;19920;-66
2022/05/25 00:12:28;;;;;;;;;;;15.60;99.90;;;;;;5105152;28;19920;-66
2022/05/25 00:14:56;;;;;;;;;;;15.70;99.90;;;;;;5103267;28;19920;-65
2022/05/25 00:17:22;;;;;;;;;;;15.60;99.90;;;;;;5103622;28;19920;-65
2022/05/25 00:20:01;;;;;;;;;;;15.70;99.90;;;;;;5102832;28;19927;-66
2022/05/25 00:22:30;;;;;;;;;;;15.60;99.90;;;;;;5105103;28;19924;-66
2022/05/25 00:24:57;;;;;;;;;;;15.60;99.90;;;;;;5104632;28;19920;-66
2022/05/25 00:27:23;;;;;;;;;;;15.60;99.90;;;;;;5104227;28;20093;-67
2022/05/25 00:29:50;;;;;;;;;;;15.70;99.90;;;;;;5105145;28;20092;-67
2022/05/25 00:32:18;;;;;;;;;;;15.60;99.90;;;;;;5105183;28;19926;-66
2022/05/25 00:34:45;;;;;;;;;;;15.60;99.90;;;;;;5104219;28;19935;-66
2022/05/25 00:37:12;;;;;;;;;;;15.60;99.90;;;;;;5103768;28;19920;-66
2022/05/25 00:39:40;;;;;;;;;;;15.60;99.90;;;;;;5104274;28;19942;-66
2022/05/25 00:42:07;;;;;;;;;;;15.60;99.90;;;;;;5104157;28;19979;-66
2022/05/25 00:44:33;;;;;;;;;;;15.50;99.90;;;;;;5104087;28;19981;-65
2022/05/25 00:47:00;;;;;;;;;;;15.60;99.90;;;;;;5103680;28;19919;-66
2022/05/25 00:49:29;;;;;;;;;;;15.50;99.90;;;;;;5103267;28;19920;-67
2022/05/25 00:51:57;;;;;;;;;;;15.50;99.90;;;;;;5103840;28;19926;-65
2022/05/25 00:54:25;;;;;;;;;;;15.50;99.90;;;;;;5090453;28;19920;-66
2022/05/25 00:56:52;;;;;;;;;;;15.50;99.90;;;;;;5103212;28;20387;-66
2022/05/25 00:59:21;;;;;;;;;;;15.50;99.90;;;;;;5092411;28;20227;-66
2022/05/25 01:01:48;;;;;;;;;;;15.50;99.90;;;;;;5090943;28;20207;-65
2022/05/25 01:04:14;;;;;;;;;;;15.50;99.90;;;;;;5103711;28;20222;-66
2022/05/25 01:06:49;;;;;;;;;;;15.50;99.90;;;;;;5102741;28;19926;-66
2022/05/25 01:09:21;;;;;;;;;;;15.50;99.90;;;;;;5101919;28;20294;-66
2022/05/25 01:11:57;;;;;;;;;;;15.40;99.90;;;;;;5099078;28;19920;-66
2022/05/25 01:14:29;;;;;;;;;;;15.40;99.90;;;;;;5083749;28;19921;-66
2022/05/25 01:17:00;;;;;;;;;;;15.40;99.90;;;;;;5084329;28;19920;-66
2022/05/25 01:19:38;;;;;;;;;;;15.40;99.90;;;;;;5103663;28;19958;-66
2022/05/25 01:22:16;;;;;;;;;;;15.40;99.90;;;;;;5103343;28;19920;-66
2022/05/25 01:24:50;;;;;;;;;;;15.40;99.90;;;;;;5103400;28;19962;-66
2022/05/25 01:27:26;;;;;;;;;;;15.40;99.90;;;;;;5103534;28;19920;-66
2022/05/25 01:30:06;;;;;;;;;;;15.30;99.90;;;;;;5103660;28;19935;-65
2022/05/25 01:32:38;;;;;;;;;;;15.30;99.90;;;;;;5102345;28;19974;-66
2022/05/25 01:35:08;;;;;;;;;;;15.20;99.90;;;;;;5101355;28;19927;-65
2022/05/25 01:37:38;;;;;;;;;;;15.20;99.90;;;;;;5103876;28;19927;-66
2022/05/25 01:40:09;;;;;;;;;;;15.10;99.90;;;;;;5103808;28;20207;-66
2022/05/25 01:42:40;;;;;;;;;;;15.10;99.90;;;;;;5102723;28;19927;-66
2022/05/25 01:45:09;;;;;;;;;;;15.10;99.90;;;;;;5103588;28;19942;-66
2022/05/25 01:47:36;;;;;;;;;;;15.10;99.90;;;;;;5101337;28;19959;-66
2022/05/25 01:50:05;;;;;;;;;;;15.10;99.90;;;;;;5092253;28;20111;-66
2022/05/25 01:52:34;;;;;;;;;;;15.10;99.90;;;;;;5103710;28;20204;-66
2022/05/25 01:55:03;;;;;;;;;;;15.10;99.90;;;;;;5100566;28;19920;-67
2022/05/25 01:57:32;;;;;;;;;;;15.00;99.90;;;;;;5102622;28;19924;-65
2022/05/25 01:59:58;;;;;;;;;;;15.00;99.90;;;;;;5103472;28;19920;-66
2022/05/25 02:05:12;;;;;;;;;;;14.90;99.90;;;;;;5105836;28;19950;-66
2022/05/25 02:07:57;;;;;;;;;;;14.80;99.90;;;;;;5107232;28;19920;-66
2022/05/25 02:10:35;;;;;;;;;;;14.90;99.90;;;;;;5084651;28;19921;-66
2022/05/25 02:13:23;;;;;;;;;;;14.80;99.90;;;;;;5087114;28;19928;-64
2022/05/25 02:15:58;;;;;;;;;;;14.70;99.90;;;;;;5100534;28;20343;-68
2022/05/25 02:18:34;;;;;;;;;;;14.70;99.90;;;;;;5099793;28;19927;-66
2022/05/25 02:21:04;;;;;;;;;;;14.70;99.90;;;;;;5103639;28;19920;-66
2022/05/25 02:23:33;;;;;;;;;;;14.70;99.90;;;;;;5106980;28;20124;-66
2022/05/25 02:26:02;;;;;;;;;;;14.70;99.90;;;;;;5105968;28;20203;-66
2022/05/25 02:28:31;;;;;;;;;;;14.70;99.90;;;;;;5106556;28;19920;-66
2022/05/25 02:30:59;;;;;;;;;;;14.70;99.90;;;;;;5106835;28;20116;-66
2022/05/25 02:33:29;;;;;;;;;;;14.70;99.90;;;;;;5106783;28;19920;-66
2022/05/25 02:35:57;;;;;;;;;;;14.70;99.90;;;;;;5106128;28;19920;-66
2022/05/25 02:38:24;;;;;;;;;;;14.60;99.90;;;;;;5106133;28;19920;-66
2022/05/25 02:40:50;;;;;;;;;;;14.50;99.90;;;;;;5106427;28;19920;-66
2022/05/25 02:43:17;;;;;;;;;;;14.50;99.90;;;;;;5106441;28;19920;-66
2022/05/25 02:45:45;;;;;;;;;;;14.50;99.90;;;;;;5105382;28;19928;-66
2022/05/25 02:48:12;;;;;;;;;;;14.50;99.90;;;;;;5106270;28;20137;-66
2022/05/25 02:50:39;;;;;;;;;;;14.50;99.90;;;;;;5103024;28;19920;-66
2022/05/25 02:53:06;;;;;;;;;;;14.40;99.90;;;;;;5090967;28;19920;-66
2022/05/25 02:55:33;;;;;;;;;;;14.40;99.90;;;;;;5105366;28;19943;-65
2022/05/25 02:57:59;;;;;;;;;;;14.40;99.90;;;;;;5106248;28;19927;-66
2022/05/25 03:00:26;;;;;;;;;;;14.40;99.90;;;;;;5103414;28;19926;-66
2022/05/25 03:02:54;;;;;;;;;;;14.40;99.90;;;;;;5106473;28;19926;-65
2022/05/25 03:05:20;;;;;;;;;;;14.40;99.90;;;;;;5105736;28;19991;-66
2022/05/25 03:07:48;;;;;;;;;;;14.30;99.90;;;;;;5106479;28;19920;-65
2022/05/25 03:10:15;;;;;;;;;;;14.30;99.90;;;;;;5103838;28;19924;-66
2022/05/25 03:12:42;;;;;;;;;;;14.20;99.90;;;;;;5105529;28;19926;-66
2022/05/25 03:15:09;;;;;;;;;;;14.20;99.90;;;;;;5105125;28;19928;-64
2022/05/25 03:17:35;;;;;;;;;;;14.10;99.90;;;;;;5089721;28;19921;-66
2022/05/25 03:20:02;;;;;;;;;;;14.10;99.90;;;;;;5101446;28;19920;-66
2022/05/25 03:22:28;;;;;;;;;;;13.90;99.90;;;;;;5105594;28;20107;-66
2022/05/25 03:24:56;;;;;;;;;;;13.80;99.90;;;;;;5085097;28;20026;-67
2022/05/25 03:27:23;;;;;;;;;;;13.80;99.90;;;;;;5084413;28;19921;-66
2022/05/25 03:29:50;;;;;;;;;;;13.80;99.90;;;;;;5099466;28;19927;-66
2022/05/25 03:32:17;;;;;;;;;;;13.80;99.90;;;;;;5105570;28;19974;-66
2022/05/25 03:34:43;;;;;;;;;;;13.80;99.90;;;;;;5105400;28;19920;-66
2022/05/25 03:37:10;;;;;;;;;;;13.70;99.90;;;;;;5104623;28;19926;-66
2022/05/25 03:39:36;;;;;;;;;;;13.80;99.90;;;;;;5091904;28;19962;-66
2022/05/25 03:42:07;;;;;;;;;;;13.80;99.90;;;;;;5101509;28;19920;-66
2022/05/25 03:44:34;;;;;;;;;;;13.80;99.90;;;;;;5099778;28;20208;-66
2022/05/25 03:47:00;;;;;;;;;;;13.80;99.90;;;;;;5101172;28;19924;-66
2022/05/25 03:49:27;;;;;;;;;;;13.80;99.90;;;;;;5104438;28;19920;-66
2022/05/25 03:51:54;;;;;;;;;;;13.80;99.90;;;;;;5099555;28;20134;-66
2022/05/25 03:54:21;;;;;;;;;;;13.80;99.90;;;;;;5102762;28;19961;-65
2022/05/25 03:56:47;;;;;;;;;;;13.70;99.90;;;;;;5103730;28;20150;-66
2022/05/25 03:59:16;;;;;;;;;;;13.70;99.90;;;;;;5103836;28;19924;-67
2022/05/25 04:01:42;;;;;;;;;;;13.70;99.90;;;;;;5103943;28;19928;-66
2022/05/25 04:04:09;;;;;;;;;;;13.70;99.90;;;;;;5103704;28;19924;-66
2022/05/25 04:06:35;;;;;;;;;;;13.60;99.90;;;;;;5103588;28;19924;-66
2022/05/25 04:09:03;;;;;;;;;;;13.60;99.90;;;;;;5104304;28;19928;-66
2022/05/25 04:11:30;;;;;;;;;;;13.60;99.90;;;;;;5114201;28;19954;-66
2022/05/25 04:13:56;;;;;;;;;;;13.60;99.90;;;;;;5106372;28;19952;-66
2022/05/25 04:16:25;;;;;;;;;;;13.70;99.90;;;;;;5100771;28;19920;-65
2022/05/25 04:18:51;;;;;;;;;;;13.70;99.90;;;;;;5102713;28;19999;-65
2022/05/25 04:21:18;;;;;;;;;;;13.70;99.90;;;;;;5103703;28;19927;-66
2022/05/25 04:23:45;;;;;;;;;;;13.70;99.90;;;;;;5102307;28;20222;-66
2022/05/25 04:26:11;;;;;;;;;;;13.70;99.90;;;;;;5101397;28;20215;-65
2022/05/25 04:28:38;;;;;;;;;;;13.70;99.90;;;;;;5100109;28;19949;-67
2022/05/25 04:31:05;;;;;;;;;;;13.80;99.90;;;;;;5086473;28;20221;-66
2022/05/25 04:33:35;;;;;;;;;;;13.80;99.90;;;;;;5109932;28;19927;-66
2022/05/25 04:36:02;;;;;;;;;;;13.80;99.90;;;;;;5106205;28;20291;-66
2022/05/25 04:38:28;;;;;;;;;;;13.80;99.90;;;;;;5108345;28;20153;-66
2022/05/25 04:40:55;;;;;;;;;;;13.80;99.90;;;;;;5114971;28;19927;-66
2022/05/25 04:43:22;;;;;;;;;;;13.80;99.90;;;;;;5103790;28;19930;-66
2022/05/25 04:45:51;;;;;;;;;;;13.80;99.90;;;;;;5096403;28;19924;-66
2022/05/25 04:48:20;;;;;;;;;;;13.80;99.90;;;;;;5103101;28;19927;-66
2022/05/25 04:50:49;;;;;;;;;;;13.80;99.90;;;;;;5095075;28;19995;-66
2022/05/25 04:53:17;;;;;;;;;;;13.70;99.90;;;;;;5094853;28;19920;-67
2022/05/25 04:58:29;;;;;;;;;;;13.80;99.90;;;;;;5104404;28;19942;-66
2022/05/25 05:00:56;;;;;;;;;;;13.80;99.90;;;;;;5122084;28;19950;-66
2022/05/25 05:03:24;;;;;;;;;;;13.80;99.90;;;;;;5094920;28;19920;-67
2022/05/25 05:05:52;;;;;;;;;;;13.80;99.90;;;;;;5102914;28;19943;-66
2022/05/25 05:08:19;;;;;;;;;;;13.80;99.90;;;;;;5103460;28;20215;-66
2022/05/25 05:10:45;;;;;;;;;;;13.80;99.90;;;;;;5103322;28;19920;-69
2022/05/25 05:13:12;;;;;;;;;;;13.70;99.90;;;;;;5103457;28;19920;-67
2022/05/25 05:15:40;;;;;;;;;;;13.80;99.90;;;;;;5102494;28;20215;-67
2022/05/25 05:18:07;;;;;;;;;;;13.80;99.90;;;;;;5103450;28;19920;-68
2022/05/25 05:20:33;;;;;;;;;;;13.80;99.90;;;;;;5103259;28;20104;-67
2022/05/25 05:23:01;;;;;;;;;;;13.80;99.90;;;;;;5103494;28;19927;-68
2022/05/25 05:25:28;;;;;;;;;;;13.80;99.90;;;;;;5103054;28;20048;-68
2022/05/25 05:27:55;;;;;;;;;;;13.90;99.90;;;;;;5103491;28;19920;-68
2022/05/25 05:30:22;;;;;;;;;;;13.80;99.90;;;;;;5103365;28;19920;-68
2022/05/25 05:32:49;;;;;;;;;;;13.80;99.90;;;;;;5103586;28;19939;-68
2022/05/25 05:35:16;;;;;;;;;;;13.80;99.90;;;;;;5102687;28;19926;-68
2022/05/25 05:37:44;;;;;;;;;;;13.80;99.90;;;;;;5105958;28;19926;-68
2022/05/25 05:40:14;;;;;;;;;;;13.80;99.90;;;;;;5107331;28;19920;-68
2022/05/25 05:42:43;;;;;;;;;;;13.80;99.90;;;;;;5107477;28;20112;-68
2022/05/25 05:45:10;;;;;;;;;;;13.80;99.90;;;;;;5121354;22;20326;-93
2022/05/25 05:47:41;;;;;;;;;;;13.80;99.90;;;;;;5090080;28;19921;-93
2022/05/25 05:50:08;;;;;;;;;;;13.80;99.90;;;;;;5097288;28;19920;-92
2022/05/25 05:52:35;;;;;;;;;;;13.70;99.90;;;;;;5095138;28;19920;-92
2022/05/25 05:55:02;;;;;;;;;;;13.70;99.90;;;;;;5102695;22;20003;-67
2022/05/25 05:57:33;;;;;;;;;;;13.80;99.90;;;;;;5076105;28;20203;-67
2022/05/25 05:59:59;;;;;;;;;;;13.80;99.90;;;;;;5078017;28;20254;-68
2022/05/25 06:02:26;;;;;;;;;;;13.80;99.90;;;;;;5073631;28;19927;-68
2022/05/25 06:04:52;;;;;;;;;;;13.80;99.90;;;;;;5083682;28;19953;-68
2022/05/25 06:07:21;;;;;;;;;;;13.90;99.90;;;;;;5083024;28;19932;-67
2022/05/25 06:09:47;;;;;;;;;;;13.90;99.90;;;;;;5085808;28;20212;-68
2022/05/25 06:12:14;;;;;;;;;;;14.00;99.90;;;;;;5081648;28;20223;-68
2022/05/25 06:14:43;;;;;;;;;;;14.00;99.90;;;;;;5065958;28;19986;-68
2022/05/25 06:19:54;;;;;;;;;;;13.90;99.90;;;;;;5065747;28;19963;-69
2022/05/25 06:22:21;;;;;;;;;;;13.90;99.90;;;;;;5066016;28;19987;-67
2022/05/25 06:24:48;;;;;;;;;;;13.90;99.90;;;;;;5065493;28;19921;-67
2022/05/25 06:27:15;;;;;;;;;;;13.90;99.90;;;;;;5065362;28;19921;-68
2022/05/25 06:29:44;;;;;;;;;;;14.00;99.90;;;;;;5073232;28;19920;-68
2022/05/25 06:32:11;;;;;;;;;;;14.00;99.90;;;;;;5085592;28;19920;-68
2022/05/25 06:34:39;;;;;;;;;;;14.00;99.90;;;;;;5085777;28;19920;-68
2022/05/25 06:37:05;;;;;;;;;;;14.10;99.90;;;;;;5085087;28;19920;-68
2022/05/25 06:39:34;;;;;;;;;;;14.10;99.90;;;;;;5085725;28;19927;-67
2022/05/25 06:42:01;;;;;;;;;;;14.20;99.90;;;;;;5085339;28;19920;-68
2022/05/25 06:44:28;;;;;;;;;;;14.20;99.90;;;;;;5085692;28;19921;-67
2022/05/25 06:46:56;;;;;;;;;;;14.30;99.90;;;;;;5082292;28;19935;-68
2022/05/25 06:49:23;;;;;;;;;;;14.30;99.90;;;;;;5086096;28;19920;-68
2022/05/25 06:51:49;;;;;;;;;;;14.40;99.90;;;;;;5085650;28;19920;-67
2022/05/25 06:54:17;;;;;;;;;;;14.50;99.90;;;;;;5085741;28;19927;-68
2022/05/25 06:56:43;;;;;;;;;;;14.50;99.90;;;;;;5081698;28;19927;-68
2022/05/25 06:59:10;;;;;;;;;;;14.50;99.90;;;;;;5075156;28;19928;-68
2022/05/25 07:01:37;;;;;;;;;;;14.50;99.90;;;;;;5065664;28;19921;-68
2022/05/25 07:04:05;;;;;;;;;;;14.40;99.90;;;;;;5065331;28;19921;-68
2022/05/25 07:06:32;;;;;;;;;;;14.40;99.90;;;;;;5062391;28;20098;-68
2022/05/25 07:08:59;;;;;;;;;;;14.40;99.90;;;;;;5065257;28;20208;-68
2022/05/25 07:11:25;;;;;;;;;;;14.40;99.90;;;;;;5065566;28;20112;-68
2022/05/25 07:13:52;;;;;;;;;;;14.40;99.90;;;;;;5080010;28;19920;-67
2022/05/25 07:16:20;;;;;;;;;;;14.50;99.90;;;;;;5084245;28;19927;-68
2022/05/25 07:18:47;;;;;;;;;;;14.50;99.90;;;;;;5085077;28;19974;-68
2022/05/25 07:21:18;;;;;;;;;;;14.60;99.90;;;;;;5085036;28;20208;-67
2022/05/25 07:23:45;;;;;;;;;;;14.70;99.90;;;;;;5085166;28;20111;-68
2022/05/25 07:26:12;;;;;;;;;;;14.80;99.90;;;;;;5084145;28;20305;-67
2022/05/25 07:28:40;;;;;;;;;;;14.90;99.90;;;;;;5085078;28;19927;-68
2022/05/25 07:31:07;;;;;;;;;;;14.90;99.90;;;;;;5085212;28;20124;-68
2022/05/25 07:33:35;;;;;;;;;;;14.90;99.90;;;;;;5085174;28;20106;-68
2022/05/25 07:36:02;;;;;;;;;;;15.00;99.90;;;;;;5084254;28;19927;-68
2022/05/25 07:38:30;;;;;;;;;;;15.20;99.90;;;;;;5085193;28;19920;-68
2022/05/25 07:40:57;;;;;;;;;;;15.20;99.90;;;;;;5084796;28;20104;-68
2022/05/25 07:43:25;;;;;;;;;;;15.30;99.90;;;;;;5085031;28;19920;-67
2022/05/25 07:45:52;;;;;;;;;;;15.40;99.90;;;;;;5084089;28;20160;-68
2022/05/25 07:48:18;;;;;;;;;;;15.40;99.90;;;;;;5081549;28;19987;-67
2022/05/25 07:50:45;;;;;;;;;;;15.40;99.90;;;;;;5084469;28;20096;-68
2022/05/25 07:55:55;;;;;;;;;;;15.60;99.90;;;;;;5083157;28;19923;-67
2022/05/25 07:58:22;;;;;;;;;;;15.60;99.90;;;;;;5080868;28;19924;-67
2022/05/25 08:00:49;;;;;;;;;;;15.60;99.90;;;;;;5079376;28;19920;-68
2022/05/25 08:05:59;;;;;;;;;;;15.70;99.90;;;;;;5083508;28;19988;-67
2022/05/25 08:08:26;;;;;;;;;;;15.80;99.90;;;;;;5084421;28;19920;-67
2022/05/25 08:10:55;;;;;;;;;;;15.80;99.90;;;;;;5084338;28;19920;-67
2022/05/25 08:13:22;;;;;;;;;;;15.80;99.90;;;;;;5084131;28;19924;-67
2022/05/25 08:15:49;;;;;;;;;;;15.90;99.90;;;;;;5083362;28;19987;-67
2022/05/25 08:18:17;;;;;;;;;;;16.00;99.90;;;;;;5084131;28;19921;-68
2022/05/25 08:20:44;;;;;;;;;;;16.10;99.90;;;;;;5084161;28;19999;-67
2022/05/25 08:23:12;;;;;;;;;;;16.20;99.90;;;;;;5084407;28;20112;-67
2022/05/25 08:25:39;;;;;;;;;;;16.20;99.90;;;;;;5083074;28;19920;-66
2022/05/25 08:28:07;;;;;;;;;;;16.30;99.90;;;;;;5083969;28;19927;-65
2022/05/25 08:30:34;;;;;;;;;;;16.30;99.90;;;;;;5084183;28;19942;-66
2022/05/25 08:33:01;;;;;;;;;;;16.50;99.90;;;;;;5084037;28;19924;-67
2022/05/25 08:35:29;;;;;;;;;;;16.60;99.90;;;;;;5083081;28;19966;-67
2022/05/25 08:37:57;;;;;;;;;;;16.70;99.90;;;;;;5083749;28;19920;-67
2022/05/25 08:40:24;;;;;;;;;;;16.70;99.90;;;;;;5083704;28;19926;-67
2022/05/25 08:42:52;;;;;;;;;;;16.80;99.90;;;;;;5083602;28;19920;-67
2022/05/25 08:45:22;;;;;;;;;;;16.80;99.90;;;;;;5083212;28;19920;-69
2022/05/25 08:47:51;;;;;;;;;;;16.90;99.90;;;;;;5081258;28;19921;-67
2022/05/25 08:50:18;;;;;;;;;;;17.00;99.90;;;;;;5083838;28;20148;-67
2022/05/25 08:52:45;;;;;;;;;;;16.90;99.90;;;;;;5083389;28;19920;-68
2022/05/25 08:55:12;;;;;;;;;;;17.00;99.90;;;;;;5083000;28;20111;-67
2022/05/25 08:57:43;;;;;;;;;;;16.90;99.90;;;;;;5078355;28;19921;-67
2022/05/25 09:00:10;;;;;;;;;;;16.90;99.90;;;;;;5075013;28;19920;-67
2022/05/25 09:02:46;;;;;;;;;;;16.80;99.90;;;;;;5083482;28;19927;-67
2022/05/25 09:05:18;;;;;;;;;;;16.80;99.90;;;;;;5080205;28;19958;-67
2022/05/25 09:07:49;;;;;;;;;;;16.80;99.90;;;;;;5082937;28;20231;-67
2022/05/25 09:10:16;;;;;;;;;;;16.80;99.90;;;;;;5082568;28;19920;-68
2022/05/25 09:12:45;;;;;;;;;;;16.90;99.90;;;;;;5086452;28;19928;-67
2022/05/25 09:15:14;;;;;;;;;;;16.90;99.90;;;;;;5087058;28;19920;-67
2022/05/25 09:17:44;;;;;;;;;;;16.90;99.90;;;;;;5087014;28;19924;-67
2022/05/25 09:20:13;;;;;;;;;;;16.90;99.90;;;;;;5087041;28;20204;-67
2022/05/25 09:22:41;;;;;;;;;;;17.00;99.90;;;;;;5087225;28;19921;-67
2022/05/25 09:25:09;;;;;;;;;;;17.10;99.90;;;;;;5084250;28;19935;-67
2022/05/25 09:27:39;;;;;;;;;;;17.20;99.90;;;;;;5086473;28;20200;-68
2022/05/25 09:30:06;;;;;;;;;;;17.30;99.90;;;;;;5087068;28;19951;-67
2022/05/25 09:32:36;;;;;;;;;;;17.30;99.90;;;;;;5081940;28;19924;-67
2022/05/25 09:35:08;;;;;;;;;;;17.30;99.90;;;;;;5069122;28;20135;-67
2022/05/25 09:37:37;;;;;;;;;;;17.30;99.90;;;;;;5084585;28;19951;-68
2022/05/25 09:40:04;;;;;;;;;;;17.40;99.90;;;;;;5086585;28;19924;-67
2022/05/25 09:42:34;;;;;;;;;;;17.50;99.90;;;;;;5086535;28;19920;-67
2022/05/25 09:45:00;;;;;;;;;;;17.50;99.90;;;;;;5086404;28;19935;-68
2022/05/25 09:47:31;;;;;;;;;;;17.50;99.90;;;;;;5085710;28;20216;-67
2022/05/25 09:49:58;;;;;;;;;;;17.60;99.90;;;;;;5079012;28;20215;-67
2022/05/25 09:52:35;;;;;;;;;;;17.80;99.90;;;;;;5086227;28;19921;-67
2022/05/25 09:55:04;;;;;;;;;;;17.90;99.90;;;;;;5086288;28;19921;-67
2022/05/25 09:57:32;;;;;;;;;;;18.10;99.90;;;;;;5085705;28;19920;-67
2022/05/25 10:00:02;;;;;;;;;;;18.10;99.90;;;;;;5086261;28;19979;-67
2022/05/25 10:02:31;;;;;;;;;;;18.20;99.90;;;;;;5086127;28;19920;-67
2022/05/25 10:05:07;;;;;;;;;;;18.30;99.90;;;;;;5086018;28;19924;-68
2022/05/25 10:07:36;;;;;;;;;;;18.20;99.90;;;;;;5066170;28;19924;-67
2022/05/25 10:10:05;;;;;;;;;;;18.10;99.90;;;;;;5075008;28;20147;-67
2022/05/25 10:12:33;;;;;;;;;;;18.10;99.90;;;;;;5082736;28;19920;-67
2022/05/25 10:15:01;;;;;;;;;;;18.00;99.90;;;;;;5085779;28;19951;-67
2022/05/25 10:17:33;;;;;;;;;;;18.10;99.90;;;;;;5085675;28;19921;-67
2022/05/25 10:20:00;;;;;;;;;;;18.20;99.90;;;;;;5085765;28;19920;-67
2022/05/25 10:22:31;;;;;;;;;;;18.40;99.90;;;;;;5085731;28;20211;-67
2022/05/25 10:25:01;;;;;;;;;;;18.50;99.90;;;;;;5085949;28;19946;-68
2022/05/25 10:27:33;;;;;;;;;;;18.80;99.90;;;;;;5084869;28;20119;-67
2022/05/25 10:38:21;;;;;;;;;;;19.40;99.90;;;;;;5074181;28;19976;-67
2022/05/25 10:40:49;;;;;;;;;;;19.40;99.90;;;;;;5077271;28;19955;-67
2022/05/25 10:43:17;;;;;;;;;;;19.20;99.90;;;;;;5085284;28;19921;-67
2022/05/25 10:45:51;;;;;;;;;;;19.00;99.90;;;;;;5084951;28;20136;-67
2022/05/25 10:48:21;;;;;;;;;;;18.80;99.90;;;;;;5085213;28;19998;-69
2022/05/25 10:50:51;;;;;;;;;;;18.80;99.90;;;;;;5082139;28;19927;-70
2022/05/25 10:53:24;;;;;;;;;;;18.90;99.90;;;;;;5084643;28;19980;-66
2022/05/25 10:55:55;;;;;;;;;;;19.10;99.90;;;;;;5083981;28;20276;-69
2022/05/25 10:58:39;;;;;;;;;;;19.30;99.90;;;;;;5083993;28;19927;-69
2022/05/25 11:01:18;;;;;;;;;;;19.50;99.90;;;;;;5083736;28;19926;-67
2022/05/25 11:04:02;;;;;;;;;;;19.70;99.90;;;;;;5080076;28;20016;-69
2022/05/25 11:06:37;;;;;;;;;;;19.90;99.90;;;;;;5083975;28;19921;-69
2022/05/25 11:09:13;;;;;;;;;;;20.20;99.90;;;;;;5085260;28;19921;-66
2022/05/25 11:11:46;;;;;;;;;;;20.10;99.90;;;;;;5085217;28;20116;-67
2022/05/25 11:14:20;;;;;;;;;;;20.00;99.90;;;;;;5085186;28;20138;-67
2022/05/25 11:16:53;;;;;;;;;;;20.00;99.90;;;;;;5084017;28;19920;-67
2022/05/25 11:19:31;;;;;;;;;;;20.10;99.90;;;;;;5083867;28;19920;-68
2022/05/25 11:22:04;;;;;;;;;;;20.30;99.90;;;;;;5082103;28;19925;-67
2022/05/25 11:24:36;;;;;;;;;;;20.60;99.90;;;;;;5084806;28;19924;-67
2022/05/25 11:27:09;;;;;;;;;;;20.70;99.90;;;;;;5084258;28;19927;-67
2022/05/25 11:29:43;;;;;;;;;;;20.80;99.90;;;;;;5085123;28;19927;-67
2022/05/25 11:32:14;;;;;;;;;;;21.00;99.90;;;;;;5084927;28;20208;-67
2022/05/25 11:34:48;;;;;;;;;;;20.80;99.90;;;;;;5081409;28;19921;-67
2022/05/25 11:37:23;;;;;;;;;;;20.70;99.90;;;;;;5084032;28;20207;-67
2022/05/25 11:39:56;;;;;;;;;;;20.70;99.90;;;;;;5076414;28;19927;-67
2022/05/25 11:42:31;;;;;;;;;;;20.70;99.90;;;;;;5084694;28;19982;-67
2022/05/25 11:45:04;;;;;;;;;;;20.90;99.90;;;;;;5084643;28;20158;-67
2022/05/25 11:47:43;;;;;;;;;;;21.10;99.90;;;;;;5083413;28;19927;-67
2022/05/25 11:50:18;;;;;;;;;;;21.30;99.90;;;;;;5074348;28;19927;-67
2022/05/25 11:52:56;;;;;;;;;;;21.50;99.90;;;;;;5062369;28;19920;-67
2022/05/25 11:55:27;;;;;;;;;;;21.40;99.90;;;;;;5066270;28;19928;-67
2022/05/25 11:58:01;;;;;;;;;;;21.50;99.90;;;;;;5079591;28;19963;-68
2022/05/25 12:00:31;;;;;;;;;;;21.60;99.90;;;;;;5071959;28;19974;-67
2022/05/25 12:03:09;;;;;;;;;;;21.70;99.90;;;;;;5072941;28;19920;-68
2022/05/25 12:05:42;;;;;;;;;;;21.40;99.90;;;;;;5070374;28;19950;-68
2022/05/25 12:08:15;;;;;;;;;;;21.20;99.90;;;;;;5071493;28;19944;-68
2022/05/25 12:10:43;;;;;;;;;;;21.40;99.90;;;;;;5075425;28;19920;-69
2022/05/25 12:13:14;;;;;;;;;;;21.20;99.90;;;;;;5068172;28;19940;-69
2022/05/25 12:15:47;;;;;;;;;;;21.20;99.90;;;;;;5077006;28;19948;-68
2022/05/25 12:18:18;;;;;;;;;;;21.50;99.90;;;;;;5072787;28;19929;-68
2022/05/25 12:20:48;;;;;;;;;;;21.70;99.90;;;;;;5075709;28;20010;-68
2022/05/25 12:23:16;;;;;;;;;;;21.70;99.90;;;;;;5072023;28;19927;-69
2022/05/25 12:25:49;;;;;;;;;;;21.90;99.90;;;;;;5077985;28;20190;-68
2022/05/25 12:28:17;;;;;;;;;;;22.10;99.90;;;;;;5082236;28;20123;-68
2022/05/25 12:30:47;;;;;;;;;;;22.30;99.90;;;;;;5071451;28;20201;-68
2022/05/25 12:33:18;;;;;;;;;;;22.50;99.90;;;;;;5078497;28;19925;-68
2022/05/25 12:35:44;;;;;;;;;;;22.60;98.50;;;;;;5068083;28;19930;-68
2022/05/25 12:38:11;;;;;;;;;;;22.70;99.70;;;;;;5073733;28;19926;-68
2022/05/25 12:40:45;;;;;;;;;;;22.90;99.90;;;;;;5071643;28;19920;-70
2022/05/25 12:43:31;;;;;;;;;;;23.00;99.80;;;;;;5081614;28;20115;-68
2022/05/25 12:48:52;;;;;;;;;;;23.20;98.00;;;;;;5073189;28;20186;-68
2022/05/25 12:51:32;;;;;;;;;;;23.30;97.70;;;;;;5076441;28;19920;-69
2022/05/25 12:54:00;;;;;;;;;;;23.10;98.40;;;;;;5072755;28;19920;-69
2022/05/25 12:56:34;;;;;;;;;;;22.90;98.00;;;;;;5074011;28;20107;-68
2022/05/25 12:59:05;;;;;;;;;;;22.90;98.50;;;;;;5079090;28;19921;-68
2022/05/25 13:01:34;;;;;;;;;;;22.90;98.10;;;;;;5063195;28;19927;-71
2022/05/25 13:04:19;;;;;;;;;;;22.80;97.30;;;;;;5062989;28;19988;-68
2022/05/25 13:07:04;;;;;;;;;;;22.80;97.80;;;;;;5055159;28;19921;-67
2022/05/25 13:09:33;;;;;;;;;;;22.90;98.60;;;;;;5081818;28;19921;-67
2022/05/25 13:12:20;;;;;;;;;;;23.10;98.70;;;;;;5073299;28;19921;-68
2022/05/25 13:14:57;;;;;;;;;;;23.30;96.10;;;;;;5059726;28;19921;-68
2022/05/25 13:17:38;;;;;;;;;;;23.50;96.20;;;;;;5077684;28;20127;-67
2022/05/25 13:20:07;;;;;;;;;;;23.30;96.10;;;;;;5081200;28;20231;-68
2022/05/25 13:22:33;;;;;;;;;;;23.50;96.90;;;;;;5073197;28;20166;-68
2022/05/25 13:25:05;;;;;;;;;;;23.60;95.10;;;;;;5072090;28;19929;-68
2022/05/25 13:27:36;;;;;;;;;;;23.40;95.20;;;;;;5075423;28;19924;-67
2022/05/25 13:30:08;;;;;;;;;;;23.50;96.20;;;;;;5072421;28;19920;-68
2022/05/25 13:32:36;;;;;;;;;;;23.40;93.80;;;;;;5073305;28;19921;-68
2022/05/25 13:35:10;;;;;;;;;;;23.50;95.80;;;;;;5072338;28;19929;-68
2022/05/25 13:37:39;;;;;;;;;;;23.50;94.90;;;;;;5072398;28;19939;-68
2022/05/25 13:40:08;;;;;;;;;;;23.40;94.30;;;;;;5070048;28;20212;-67
2022/05/25 13:42:38;;;;;;;;;;;23.30;94.20;;;;;;5073637;28;19920;-68
2022/05/25 13:45:07;;;;;;;;;;;23.20;94.00;;;;;;5070872;28;19947;-68
2022/05/25 13:47:33;;;;;;;;;;;23.60;94.80;;;;;;5072362;28;20127;-68
2022/05/25 13:50:00;;;;;;;;;;;23.90;94.00;;;;;;5074256;28;19926;-68
2022/05/25 13:52:28;;;;;;;;;;;23.90;95.10;;;;;;5071574;28;19974;-67
2022/05/25 13:54:57;;;;;;;;;;;23.70;92.80;;;;;;5072734;28;19928;-67
2022/05/25 13:57:29;;;;;;;;;;;24.10;94.10;;;;;;5073201;28;20265;-68
2022/05/25 13:59:57;;;;;;;;;;;24.40;92.20;;;;;;5074200;28;20267;-68
2022/05/25 14:02:26;;;;;;;;;;;24.60;92.50;;;;;;5077876;28;19931;-67
2022/05/25 14:04:54;;;;;;;;;;;24.80;92.40;;;;;;5075948;28;20234;-68
2022/05/25 14:07:30;;;;;;;;;;;24.90;91.60;;;;;;5066709;28;19924;-68
2022/05/25 14:12:46;;;;;;;;;;;24.80;90.50;;;;;;5074717;28;19940;-68
2022/05/25 14:15:17;;;;;;;;;;;24.60;90.40;;;;;;5077859;28;19920;-67
2022/05/25 14:17:53;;;;;;;;;;;24.60;90.50;;;;;;5065746;28;19920;-66
2022/05/25 14:20:22;;;;;;;;;;;24.40;90.70;;;;;;5066601;28;19920;-67
2022/05/25 14:22:49;;;;;;;;;;;24.00;90.50;;;;;;5068032;28;20212;-67
2022/05/25 14:25:19;;;;;;;;;;;23.60;90.80;;;;;;5076450;28;19928;-69
2022/05/25 14:27:47;;;;;;;;;;;23.40;91.10;;;;;;5086016;28;19974;-68
2022/05/25 14:30:17;;;;;;;;;;;23.50;92.10;;;;;;5085545;28;20039;-69
2022/05/25 14:32:56;;;;;;;;;;;23.60;91.40;;;;;;5084887;28;19927;-68
2022/05/25 14:35:24;;;;;;;;;;;24.00;91.60;;;;;;5084717;28;19928;-69
2022/05/25 14:37:50;;;;;;;;;;;24.10;90.60;;;;;;5070984;28;19925;-69
2022/05/25 14:40:19;;;;;;;;;;;24.20;90.60;;;;;;5081192;28;20231;-69
2022/05/25 14:42:50;;;;;;;;;;;24.20;90.50;;;;;;5082643;28;20172;-68
2022/05/25 14:45:17;;;;;;;;;;;24.20;90.50;;;;;;5083532;28;19927;-68
2022/05/25 14:47:48;;;;;;;;;;;24.00;90.10;;;;;;5080711;28;19920;-68
2022/05/25 14:50:18;;;;;;;;;;;23.60;90.70;;;;;;5085985;28;19920;-69
2022/05/25 14:52:47;;;;;;;;;;;23.20;90.80;;;;;;5082013;28;19920;-69
2022/05/25 14:55:21;;;;;;;;;;;22.70;91.70;;;;;;5083666;28;19921;-70